Time;durP1;ratioP1;P1;durP2;ratioP2;P2;SDS_P1;SDS_P2;PMS_P1;PMS_P2;Temp;Humidity;BMP_temperature;BMP_pressure;BME280_temperature;BME280_humidity;BME280_pressure;Samples;Min_cycle;Max_cycle;Signal;HPM_P1;HPM_P2
2021/06/26 00:25:34;;;;;;;20.80;11.35;;;;;;;;;;5076238;27;20433;-60
2021/06/26 00:28:01;;;;;;;23.50;12.65;;;;;;;;;;5072155;28;20073;-60
2021/06/26 00:30:28;;;;;;;23.42;12.00;;;;;;;;;;5079873;28;20123;-60
2021/06/26 02:25:34;;;;;;;137.45;16.35;;;;;;;;;;5041541;28;20412;-59
2021/06/26 02:28:00;;;;;;;157.65;18.85;;;;;;;;;;5023150;28;20096;-60
2021/06/26 02:30:27;;;;;;;208.73;22.05;;;;;;;;;;5025844;28;20049;-60
2021/06/26 02:32:54;;;;;;;216.88;21.02;;;;;;;;;;5025549;28;20065;-60
2021/06/26 07:27:38;;;;;;;9.82;6.53;;;;;;;;;;5058788;28;21041;-60
2021/06/26 07:30:05;;;;;;;12.02;6.30;;;;;;;;;;5048206;28;20068;-60
2021/06/26 07:32:32;;;;;;;11.60;5.90;;;;;;;;;;5045803;28;20059;-60
2021/06/26 08:27:36;;;;;;;13.82;5.38;;;;;;;;;;5059075;28;20989;-60
2021/06/26 08:30:03;;;;;;;6.97;5.43;;;;;;;;;;5053115;28;20047;-60
2021/06/26 08:32:30;;;;;;;10.80;5.00;;;;;;;;;;5049363;28;20045;-61
2021/06/26 08:34:57;;;;;;;10.18;5.50;;;;;;;;;;5064227;28;20040;-61
2021/06/26 08:37:32;;;;;;;11.68;5.13;;;;;;;;;;5052778;28;20053;-61
2021/06/26 08:39:59;;;;;;;7.10;4.72;;;;;;;;;;5054789;28;20041;-61
2021/06/26 08:42:26;;;;;;;10.88;5.75;;;;;;;;;;5049972;28;20037;-61
2021/06/26 08:44:57;;;;;;;9.07;4.65;;;;;;;;;;5053305;28;20041;-61
2021/06/26 08:47:24;;;;;;;8.65;4.95;;;;;;;;;;5051216;28;20063;-61
2021/06/26 08:49:51;;;;;;;10.18;5.15;;;;;;;;;;5051635;28;20129;-61
2021/06/26 08:52:18;;;;;;;9.45;5.13;;;;;;;;;;5057834;28;20044;-61
2021/06/26 08:54:45;;;;;;;8.15;5.20;;;;;;;;;;5052568;28;20067;-61
2021/06/26 08:57:12;;;;;;;6.55;4.65;;;;;;;;;;5050620;28;20125;-60
2021/06/26 08:59:39;;;;;;;7.80;5.00;;;;;;;;;;5047432;28;20059;-61
2021/06/26 09:02:18;;;;;;;10.10;4.70;;;;;;;;;;5047798;28;20049;-61
2021/06/26 09:04:45;;;;;;;10.48;5.38;;;;;;;;;;5053417;28;20050;-61
2021/06/26 09:07:12;;;;;;;6.97;4.70;;;;;;;;;;5053848;28;20036;-61
2021/06/26 09:09:38;;;;;;;8.97;4.67;;;;;;;;;;5053707;28;20447;-60
2021/06/26 09:12:11;;;;;;;7.10;5.20;;;;;;;;;;5054787;28;20072;-61
2021/06/26 09:14:39;;;;;;;7.10;4.53;;;;;;;;;;5056150;28;20053;-61
2021/06/26 09:17:06;;;;;;;8.35;4.10;;;;;;;;;;5052098;28;20037;-61
2021/06/26 09:19:34;;;;;;;5.63;4.32;;;;;;;;;;5049714;28;20098;-61
2021/06/26 09:22:12;;;;;;;8.00;4.75;;;;;;;;;;5051056;28;20032;-61
2021/06/26 09:24:41;;;;;;;5.97;4.22;;;;;;;;;;5055899;28;20492;-61
2021/06/26 09:27:09;;;;;;;7.70;4.43;;;;;;;;;;5053434;28;20048;-61
2021/06/26 09:29:35;;;;;;;;;;;;;;;;;;5049798;28;20041;-61
2021/06/26 09:32:03;;;;;;;9.57;4.80;;;;;;;;;;5048569;28;20395;-62
2021/06/26 09:34:51;;;;;;;8.40;4.65;;;;;;;;;;5054110;28;20342;-61
2021/06/26 09:37:22;;;;;;;9.88;4.60;;;;;;;;;;5045921;28;20500;-61
2021/06/26 09:39:51;;;;;;;6.47;4.30;;;;;;;;;;5044005;28;20033;-61
2021/06/26 09:42:20;;;;;;;7.80;3.92;;;;;;;;;;5038471;28;20045;-61
2021/06/26 09:44:51;;;;;;;6.38;4.05;;;;;;;;;;5040234;28;20120;-61
2021/06/26 09:47:24;;;;;;;5.93;4.10;;;;;;;;;;5038630;28;20033;-61
2021/06/26 09:49:51;;;;;;;5.38;4.25;;;;;;;;;;5037327;28;20080;-61
2021/06/26 09:52:18;;;;;;;7.07;4.10;;;;;;;;;;5036749;28;20124;-61
2021/06/26 09:54:45;;;;;;;12.32;4.50;;;;;;;;;;5037262;28;20065;-60
2021/06/26 09:57:11;;;;;;;5.97;4.15;;;;;;;;;;5038874;28;20366;-58
2021/06/26 09:59:39;;;;;;;7.75;4.10;;;;;;;;;;5039025;28;20038;-59
2021/06/26 10:02:15;;;;;;;9.38;4.25;;;;;;;;;;5033723;28;20029;-59
2021/06/26 10:04:41;;;;;;;7.35;4.75;;;;;;;;;;5037789;28;20106;-59
2021/06/26 10:07:08;;;;;;;5.07;4.17;;;;;;;;;;5038445;28;20034;-58
2021/06/26 10:09:35;;;;;;;6.70;4.40;;;;;;;;;;5036205;28;20073;-59
2021/06/26 10:12:01;;;;;;;5.95;4.20;;;;;;;;;;5042016;28;20813;-59
2021/06/26 10:14:28;;;;;;;8.95;4.30;;;;;;;;;;5038617;28;20392;-59
2021/06/26 10:16:55;;;;;;;5.40;3.90;;;;;;;;;;5035603;28;20056;-59
2021/06/26 10:19:24;;;;;;;8.75;4.20;;;;;;;;;;5038337;28;20040;-59
2021/06/26 10:21:50;;;;;;;;;;;;;;;;;;5039097;28;20041;-59
2021/06/26 10:24:18;;;;;;;6.53;4.47;;;;;;;;;;5044306;28;19964;-59
2021/06/26 10:26:44;;;;;;;9.13;4.15;;;;;;;;;;5037579;28;20059;-59
2021/06/26 10:29:13;;;;;;;;;;;;;;;;;;5034114;28;20505;-59
2021/06/26 10:31:44;;;;;;;6.05;4.35;;;;;;;;;;5037879;28;19927;-59
2021/06/26 10:34:11;;;;;;;7.70;4.43;;;;;;;;;;5037050;28;20064;-59
2021/06/26 10:36:39;;;;;;;8.40;4.50;;;;;;;;;;5044453;28;20057;-60
2021/06/26 10:39:15;;;;;;;8.02;3.83;;;;;;;;;;5036565;28;20099;-60
2021/06/26 10:41:42;;;;;;;5.50;4.22;;;;;;;;;;5039706;28;20532;-59
2021/06/26 10:44:09;;;;;;;7.80;4.10;;;;;;;;;;5039747;28;20041;-60
2021/06/26 10:46:45;;;;;;;5.88;4.20;;;;;;;;;;5038316;28;20450;-60
2021/06/26 10:49:11;;;;;;;6.43;3.97;;;;;;;;;;5041046;28;20044;-60
2021/06/26 10:51:40;;;;;;;8.27;3.83;;;;;;;;;;5037625;28;20049;-60
2021/06/26 10:54:11;;;;;;;10.90;4.35;;;;;;;;;;5041408;28;20060;-60
2021/06/26 10:56:39;;;;;;;7.82;4.40;;;;;;;;;;5038319;28;20686;-60
2021/06/26 10:59:23;;;;;;;5.68;3.92;;;;;;;;;;5036404;28;20037;-60
2021/06/26 11:01:54;;;;;;;6.13;3.88;;;;;;;;;;5033238;28;20049;-60
2021/06/26 11:04:21;;;;;;;7.38;4.13;;;;;;;;;;5041976;28;20044;-60
2021/06/26 11:07:01;;;;;;;9.25;4.40;;;;;;;;;;5037098;28;20041;-60
2021/06/26 11:09:34;;;;;;;6.47;4.18;;;;;;;;;;5040533;28;20140;-60
2021/06/26 11:12:06;;;;;;;8.63;4.38;;;;;;;;;;5037162;28;20160;-60
2021/06/26 11:14:33;;;;;;;6.35;4.03;;;;;;;;;;5038646;28;20579;-60
2021/06/26 11:17:00;;;;;;;5.70;4.13;;;;;;;;;;5035354;28;20037;-60
2021/06/26 11:19:31;;;;;;;7.95;4.63;;;;;;;;;;5036513;28;20147;-59
2021/06/26 11:21:59;;;;;;;5.35;4.00;;;;;;;;;;5045191;28;20041;-60
2021/06/26 11:24:36;;;;;;;8.75;4.80;;;;;;;;;;5040686;28;20049;-60
2021/06/26 11:27:03;;;;;;;7.60;4.50;;;;;;;;;;5039804;28;20102;-60
2021/06/26 11:29:32;;;;;;;7.15;4.55;;;;;;;;;;5037734;28;20044;-60
2021/06/26 11:32:00;;;;;;;8.15;5.05;;;;;;;;;;5036636;28;20077;-60
2021/06/26 11:34:27;;;;;;;7.43;4.70;;;;;;;;;;5037065;28;20511;-60
2021/06/26 11:36:55;;;;;;;9.18;5.03;;;;;;;;;;5035599;28;20045;-60
2021/06/26 11:39:21;;;;;;;10.50;5.23;;;;;;;;;;5039462;28;20044;-60
2021/06/26 11:41:48;;;;;;;8.98;4.90;;;;;;;;;;5035914;28;20096;-60
2021/06/26 11:44:15;;;;;;;9.10;5.10;;;;;;;;;;5035033;28;20050;-60
2021/06/26 11:46:41;;;;;;;6.82;4.90;;;;;;;;;;5037794;28;20053;-60
2021/06/26 11:49:09;;;;;;;11.40;5.50;;;;;;;;;;5037256;28;20043;-60
2021/06/26 11:51:36;;;;;;;7.43;4.95;;;;;;;;;;5039192;28;20048;-60
2021/06/26 11:54:02;;;;;;;6.53;4.57;;;;;;;;;;5037776;28;20052;-60
2021/06/26 11:56:29;;;;;;;6.82;5.22;;;;;;;;;;5041759;28;20443;-60
2021/06/26 11:58:57;;;;;;;9.88;5.20;;;;;;;;;;5035901;28;20513;-60
2021/06/26 12:01:27;;;;;;;8.57;4.70;;;;;;;;;;5040009;28;20509;-60
2021/06/26 12:03:57;;;;;;;15.32;5.55;;;;;;;;;;5035298;28;20037;-60
2021/06/26 12:06:23;;;;;;;8.20;5.00;;;;;;;;;;5032704;28;20037;-60
2021/06/26 12:08:54;;;;;;;6.53;4.47;;;;;;;;;;5037430;28;20048;-60
2021/06/26 12:11:24;;;;;;;9.48;4.93;;;;;;;;;;5033970;28;20072;-60
2021/06/26 12:13:53;;;;;;;7.75;5.38;;;;;;;;;;5040989;28;20618;-60
2021/06/26 12:16:21;;;;;;;7.43;4.70;;;;;;;;;;5035281;28;20124;-60
2021/06/26 12:18:53;;;;;;;6.60;4.60;;;;;;;;;;5038725;28;20038;-60
2021/06/26 12:21:21;;;;;;;7.97;4.45;;;;;;;;;;5040154;28;20041;-60
2021/06/26 12:23:48;;;;;;;7.38;4.72;;;;;;;;;;5035252;28;20049;-60
2021/06/26 12:26:19;;;;;;;8.10;4.88;;;;;;;;;;5038174;28;20044;-60
2021/06/26 12:28:46;;;;;;;9.43;4.80;;;;;;;;;;5041091;28;20071;-60
2021/06/26 12:31:13;;;;;;;9.50;4.82;;;;;;;;;;5039435;28;20048;-60
2021/06/26 12:33:44;;;;;;;9.10;4.53;;;;;;;;;;5041806;28;20037;-60
2021/06/26 12:36:14;;;;;;;9.45;5.03;;;;;;;;;;5043533;28;20392;-60
2021/06/26 12:38:42;;;;;;;8.57;4.93;;;;;;;;;;5040640;28;20049;-60
2021/06/26 12:41:21;;;;;;;7.25;5.40;;;;;;;;;;5041751;28;20060;-60
2021/06/26 12:43:48;;;;;;;11.35;5.30;;;;;;;;;;5042166;28;20805;-60
2021/06/26 12:46:15;;;;;;;6.72;4.78;;;;;;;;;;5042688;28;20056;-60
2021/06/26 12:48:45;;;;;;;8.18;4.97;;;;;;;;;;5044191;28;20048;-60
2021/06/26 12:51:17;;;;;;;6.43;4.63;;;;;;;;;;5043567;28;20041;-60
2021/06/26 12:53:49;;;;;;;6.18;4.63;;;;;;;;;;5046460;28;20048;-60
2021/06/26 12:56:20;;;;;;;8.25;5.05;;;;;;;;;;5040099;28;20052;-60
2021/06/26 12:58:56;;;;;;;8.18;4.82;;;;;;;;;;5045636;28;20116;-60
2021/06/26 13:01:36;;;;;;;8.05;5.07;;;;;;;;;;5039888;28;20037;-60
2021/06/26 13:04:04;;;;;;;7.25;4.72;;;;;;;;;;5043165;28;20046;-60
2021/06/26 13:06:42;;;;;;;5.78;4.53;;;;;;;;;;5038904;28;20423;-60
2021/06/26 13:09:09;;;;;;;7.60;4.68;;;;;;;;;;5043503;28;20489;-60
2021/06/26 13:11:37;;;;;;;5.82;5.20;;;;;;;;;;5041431;28;20055;-60
2021/06/26 13:14:09;;;;;;;13.50;5.22;;;;;;;;;;5044594;28;20053;-60
2021/06/26 13:16:37;;;;;;;8.32;4.90;;;;;;;;;;5048185;28;20055;-60
2021/06/26 13:19:04;;;;;;;;;;;;;;;;;;5047557;28;20045;-60
2021/06/26 13:21:33;;;;;;;11.00;5.10;;;;;;;;;;5044579;28;20368;-59
2021/06/26 13:24:01;;;;;;;10.15;4.95;;;;;;;;;;5047411;28;20040;-60
2021/06/26 13:26:28;;;;;;;6.90;5.20;;;;;;;;;;5043333;28;20057;-60
2021/06/26 13:28:55;;;;;;;7.38;4.78;;;;;;;;;;5047682;28;20552;-60
2021/06/26 13:31:30;;;;;;;8.32;5.15;;;;;;;;;;5045091;28;20556;-60
2021/06/26 13:33:57;;;;;;;9.05;4.95;;;;;;;;;;5047116;28;20089;-60
2021/06/26 13:36:23;;;;;;;10.70;5.22;;;;;;;;;;5049866;28;20107;-59
2021/06/26 13:38:50;;;;;;;8.25;4.88;;;;;;;;;;5042732;28;20450;-60
2021/06/26 13:41:20;;;;;;;6.20;4.68;;;;;;;;;;5037261;28;20057;-60
2021/06/26 13:43:47;;;;;;;;;;;;;;;;;;5039935;28;20560;-60
2021/06/26 13:46:14;;;;;;;7.57;5.00;;;;;;;;;;5037014;28;20613;-60
2021/06/26 13:48:43;;;;;;;8.35;4.70;;;;;;;;;;5036184;28;20342;-60
2021/06/26 13:51:10;;;;;;;8.13;4.88;;;;;;;;;;5036733;28;20061;-59
2021/06/26 13:53:36;;;;;;;7.67;4.93;;;;;;;;;;5032593;28;20044;-60
2021/06/26 13:56:04;;;;;;;7.20;4.78;;;;;;;;;;5037996;28;20337;-60
2021/06/26 13:58:32;;;;;;;9.60;5.00;;;;;;;;;;5035507;28;20045;-60
2021/06/26 14:00:58;;;;;;;6.95;4.20;;;;;;;;;;5033347;28;20207;-60
2021/06/26 14:03:25;;;;;;;5.35;4.47;;;;;;;;;;5042675;28;20053;-60
2021/06/26 14:05:52;;;;;;;4.95;3.92;;;;;;;;;;5038359;28;20034;-59
2021/06/26 14:08:19;;;;;;;5.22;4.10;;;;;;;;;;5041495;28;20072;-60
2021/06/26 14:10:50;;;;;;;5.25;3.47;;;;;;;;;;5042834;28;20049;-60
2021/06/26 14:13:18;;;;;;;4.60;3.25;;;;;;;;;;5039309;28;20448;-60
2021/06/26 14:15:44;;;;;;;;;;;;;;;;;;5044356;28;20518;-60
2021/06/26 14:18:13;;;;;;;6.07;3.38;;;;;;;;;;5037994;28;19921;-60
2021/06/26 14:20:40;;;;;;;4.95;3.50;;;;;;;;;;5040288;28;20052;-60
2021/06/26 14:23:07;;;;;;;5.60;3.28;;;;;;;;;;5040248;28;20045;-60
2021/06/26 14:25:34;;;;;;;4.70;3.40;;;;;;;;;;5037194;28;20037;-60
2021/06/26 14:28:00;;;;;;;4.30;3.53;;;;;;;;;;5036701;28;20045;-60
2021/06/26 14:30:27;;;;;;;4.07;3.40;;;;;;;;;;5038153;28;20047;-60
2021/06/26 14:32:54;;;;;;;3.25;2.88;;;;;;;;;;5039220;28;20383;-60
2021/06/26 14:35:20;;;;;;;6.10;3.30;;;;;;;;;;5041539;28;20030;-60
2021/06/26 14:37:47;;;;;;;3.53;2.78;;;;;;;;;;5036586;28;20052;-60
2021/06/26 14:40:15;;;;;;;4.93;2.95;;;;;;;;;;5035874;28;20048;-60
2021/06/26 14:42:43;;;;;;;3.33;2.70;;;;;;;;;;5035779;28;20099;-60
2021/06/26 14:45:09;;;;;;;3.42;2.63;;;;;;;;;;5038835;28;20430;-60
2021/06/26 14:47:36;;;;;;;3.72;2.70;;;;;;;;;;5031326;28;20037;-59
2021/06/26 14:50:05;;;;;;;2.53;2.30;;;;;;;;;;5036392;28;20143;-60
2021/06/26 14:52:31;;;;;;;;;;;;;;;;;;5037962;28;20064;-60
2021/06/26 14:54:58;;;;;;;3.90;2.55;;;;;;;;;;5037185;28;19925;-60
2021/06/26 14:57:25;;;;;;;4.35;2.80;;;;;;;;;;5037903;28;20075;-60
2021/06/26 14:59:52;;;;;;;3.55;2.70;;;;;;;;;;5039386;28;20048;-60
2021/06/26 15:02:21;;;;;;;4.07;2.90;;;;;;;;;;5033029;28;20195;-59
2021/06/26 15:04:49;;;;;;;2.72;2.42;;;;;;;;;;5037840;28;20140;-60
2021/06/26 15:07:16;;;;;;;3.72;2.67;;;;;;;;;;5037448;28;20044;-60
2021/06/26 15:09:42;;;;;;;3.40;2.80;;;;;;;;;;5038149;28;20128;-60
2021/06/26 15:12:10;;;;;;;3.90;3.00;;;;;;;;;;5038506;28;20033;-60
2021/06/26 15:14:37;;;;;;;4.47;2.97;;;;;;;;;;5034601;28;20053;-60
2021/06/26 15:17:03;;;;;;;4.30;3.10;;;;;;;;;;5036600;28;20033;-60
2021/06/26 15:19:30;;;;;;;3.97;3.00;;;;;;;;;;5035770;28;20038;-60
2021/06/26 15:21:57;;;;;;;3.63;2.93;;;;;;;;;;5039099;28;20037;-60
2021/06/26 15:24:24;;;;;;;5.95;3.30;;;;;;;;;;5039803;28;20159;-60
2021/06/26 15:26:50;;;;;;;3.63;3.00;;;;;;;;;;5039491;28;20049;-60
2021/06/26 15:29:17;;;;;;;3.40;2.93;;;;;;;;;;5040592;28;20492;-60
2021/06/26 15:31:43;;;;;;;4.13;3.00;;;;;;;;;;5033829;28;20052;-60
2021/06/26 15:34:11;;;;;;;3.75;3.17;;;;;;;;;;5036495;28;20119;-59
2021/06/26 15:36:40;;;;;;;7.93;3.08;;;;;;;;;;5042090;28;20041;-61
2021/06/26 15:39:11;;;;;;;4.10;3.67;;;;;;;;;;5038912;28;20110;-60
2021/06/26 15:41:42;;;;;;;5.90;3.70;;;;;;;;;;5037740;28;20069;-60
2021/06/26 15:44:09;;;;;;;8.30;4.03;;;;;;;;;;5039501;28;20055;-60
2021/06/26 15:46:36;;;;;;;4.55;3.35;;;;;;;;;;5034553;28;20051;-60
2021/06/26 15:49:04;;;;;;;4.60;3.55;;;;;;;;;;5033221;28;20038;-60
2021/06/26 15:51:35;;;;;;;4.72;3.72;;;;;;;;;;5034441;28;20033;-60
2021/06/26 15:54:02;;;;;;;5.78;3.65;;;;;;;;;;5035974;28;20049;-60
2021/06/26 15:56:31;;;;;;;4.57;3.60;;;;;;;;;;5036152;28;20041;-60
2021/06/26 15:59:00;;;;;;;7.28;4.20;;;;;;;;;;5037333;28;20099;-59
2021/06/26 16:01:27;;;;;;;9.63;4.30;;;;;;;;;;5032737;28;20127;-60
2021/06/26 16:03:56;;;;;;;5.97;4.15;;;;;;;;;;5037474;28;20045;-60
2021/06/26 16:06:22;;;;;;;7.60;4.40;;;;;;;;;;5036063;28;20514;-60
2021/06/26 16:08:49;;;;;;;6.03;4.13;;;;;;;;;;5033971;28;20484;-59
2021/06/26 16:11:18;;;;;;;6.80;4.15;;;;;;;;;;5037339;28;20041;-60
2021/06/26 16:13:44;;;;;;;5.17;3.63;;;;;;;;;;5037090;28;20041;-60
2021/06/26 16:16:11;;;;;;;6.55;4.68;;;;;;;;;;5041265;28;20330;-60
2021/06/26 16:18:38;;;;;;;7.88;4.32;;;;;;;;;;5034832;28;20045;-60
2021/06/26 16:21:08;;;;;;;8.35;4.32;;;;;;;;;;5034489;28;20030;-59
2021/06/26 16:23:35;;;;;;;7.47;4.57;;;;;;;;;;5038367;28;20041;-59
2021/06/26 16:26:05;;;;;;;8.88;4.85;;;;;;;;;;5037272;28;20103;-60
2021/06/26 16:28:33;;;;;;;8.68;4.25;;;;;;;;;;5034380;28;20077;-59
2021/06/26 23:22:32;;;;;;;10.50;3.88;;;;;;;;;;5032183;27;20494;-60
2021/06/26 23:25:03;;;;;;;16.08;3.80;;;;;;;;;;5032967;27;20116;-61
2021/06/26 23:27:29;;;;;;;9.57;4.30;;;;;;;;;;5029723;27;20560;-61
2021/06/26 23:29:56;;;;;;;9.48;3.63;;;;;;;;;;5028264;27;20157;-61
2021/06/26 23:32:23;;;;;;;10.32;3.50;;;;;;;;;;5029209;27;20038;-61
